createdAt,value
2017-07-31T00:00:02.616Z,16.7
2017-07-31T00:05:02.513Z,16.6
2017-07-31T00:10:03.060Z,16.2
2017-07-31T00:15:02.459Z,16.2
2017-07-31T00:20:02.880Z,16.2
2017-07-31T00:25:03.179Z,16.2
2017-07-31T00:30:02.491Z,16.0
2017-07-31T00:35:02.976Z,16.2
2017-07-31T00:40:02.296Z,16.2
2017-07-31T00:50:03.146Z,16.2
2017-07-31T00:55:02.534Z,16.3
2017-07-31T01:00:02.977Z,16.6
2017-07-31T01:05:02.324Z,16.6
2017-07-31T01:10:02.856Z,16.3
2017-07-31T01:15:03.196Z,16.2
2017-07-31T01:20:02.623Z,15.8
2017-07-31T01:25:02.962Z,16.0
2017-07-31T01:30:03.240Z,15.8
2017-07-31T01:35:02.677Z,15.6
2017-07-31T01:40:03.022Z,15.1
2017-07-31T01:45:02.288Z,15.1
2017-07-31T01:50:02.584Z,15.1
2017-07-31T01:55:03.007Z,15.1
2017-07-31T02:00:02.427Z,15.0
2017-07-31T02:05:02.748Z,15.0
2017-07-31T02:10:03.158Z,15.0
2017-07-31T02:15:02.524Z,15.0
2017-07-31T02:20:02.943Z,15.0
2017-07-31T02:25:02.371Z,14.8
2017-07-31T02:30:02.736Z,15.0
2017-07-31T02:35:02.990Z,14.5
2017-07-31T02:40:02.365Z,14.5
2017-07-31T02:45:02.873Z,14.6
2017-07-31T02:50:02.318Z,14.5
2017-07-31T02:55:02.612Z,14.3
2017-07-31T03:00:03.034Z,14.1
2017-07-31T03:05:02.324Z,14.1
2017-07-31T03:10:02.681Z,14.1
2017-07-31T03:15:03.125Z,14.3
2017-07-31T03:20:02.522Z,14.3
2017-07-31T03:25:02.793Z,14.3
2017-07-31T03:30:03.186Z,14.3
2017-07-31T03:35:02.490Z,14.3
2017-07-31T03:40:02.929Z,14.3
2017-07-31T03:45:03.227Z,14.5
2017-07-31T03:50:02.525Z,14.3
2017-07-31T03:55:02.817Z,14.6
2017-07-31T04:00:02.295Z,14.5
2017-07-31T04:05:02.649Z,14.5
2017-07-31T04:10:03.138Z,14.3
2017-07-31T04:15:02.474Z,14.3
2017-07-31T04:20:02.945Z,14.3
2017-07-31T04:25:02.436Z,14.1
2017-07-31T04:30:03.130Z,14.3
2017-07-31T04:35:02.546Z,14.1
2017-07-31T04:40:02.934Z,14.0
2017-07-31T04:45:02.353Z,14.3
2017-07-31T04:50:02.608Z,14.5
2017-07-31T04:55:02.909Z,15.0
2017-07-31T05:00:03.189Z,15.1
2017-07-31T05:05:02.412Z,15.5
2017-07-31T05:10:02.873Z,15.5
2017-07-31T05:15:02.289Z,15.6
2017-07-31T05:20:02.592Z,15.6
2017-07-31T05:25:02.913Z,15.6
2017-07-31T05:30:03.193Z,15.8
2017-07-31T05:35:02.611Z,15.8
2017-07-31T05:40:02.985Z,16.2
2017-07-31T05:45:02.275Z,16.6
2017-07-31T05:50:02.702Z,16.7
2017-07-31T05:55:03.090Z,17.0
2017-07-31T06:00:02.373Z,17.0
2017-07-31T06:05:02.790Z,17.3
2017-07-31T06:10:03.165Z,17.5
2017-07-31T06:15:02.588Z,17.7
2017-07-31T06:20:02.897Z,18.1
2017-07-31T06:25:03.210Z,18.1
2017-07-31T06:30:02.413Z,18.2
2017-07-31T06:35:02.778Z,18.2
2017-07-31T06:40:03.150Z,18.6
2017-07-31T06:45:02.416Z,18.7
2017-07-31T06:50:02.769Z,18.8
2017-07-31T06:55:03.211Z,19.0
2017-07-31T07:00:02.498Z,19.1
2017-07-31T07:05:02.728Z,19.3
2017-07-31T07:10:03.175Z,19.5
2017-07-31T07:15:02.557Z,19.7
2017-07-31T07:20:03.034Z,19.7
2017-07-31T07:25:02.384Z,20.0
2017-07-31T07:30:02.796Z,20.2
2017-07-31T07:35:03.130Z,20.2
2017-07-31T07:40:02.569Z,20.3
2017-07-31T07:45:03.047Z,20.8
2017-07-31T07:50:02.501Z,21.2
2017-07-31T07:55:02.952Z,21.7
2017-07-31T08:00:03.228Z,21.6
2017-07-31T08:05:02.605Z,21.8
2017-07-31T08:10:02.939Z,21.7
2017-07-31T08:15:03.213Z,22.3
2017-07-31T08:20:02.590Z,22.6
2017-07-31T08:25:03.039Z,22.0
2017-07-31T08:30:02.695Z,22.2
2017-07-31T08:35:03.048Z,22.7
2017-07-31T08:40:02.445Z,22.3
2017-07-31T08:45:02.720Z,22.7
2017-07-31T08:50:03.019Z,22.7
2017-07-31T08:55:02.429Z,22.2
2017-07-31T09:00:02.841Z,22.3
2017-07-31T09:05:03.187Z,23.0
2017-07-31T09:10:02.601Z,22.2
2017-07-31T09:15:02.969Z,22.6
2017-07-31T09:20:02.431Z,23.3
2017-07-31T09:25:02.750Z,23.7
2017-07-31T09:30:03.144Z,23.2
2017-07-31T09:35:02.454Z,23.2
2017-07-31T09:40:02.969Z,23.3
2017-07-31T09:45:03.231Z,23.2
2017-07-31T09:50:02.477Z,22.6
2017-07-31T09:55:02.729Z,22.7
2017-07-31T10:00:03.021Z,23.0
2017-07-31T10:05:03.270Z,23.2
2017-07-31T10:10:02.758Z,23.2
2017-07-31T10:15:03.038Z,23.1
2017-07-31T10:20:02.365Z,22.7
2017-07-31T10:25:02.620Z,22.6
2017-07-31T10:30:02.886Z,23.1
2017-07-31T10:35:02.340Z,22.7
2017-07-31T10:40:02.906Z,22.5
2017-07-31T10:45:02.346Z,23.2
2017-07-31T10:50:02.625Z,23.7
2017-07-31T10:55:03.029Z,22.7
2017-07-31T11:00:02.482Z,23.6
2017-07-31T11:05:02.889Z,23.2
2017-07-31T11:10:03.160Z,23.2
2017-07-31T11:15:02.447Z,24.7
2017-07-31T11:20:02.758Z,24.3
2017-07-31T11:25:03.158Z,23.7
2017-07-31T11:30:02.466Z,25.0
2017-07-31T11:35:02.926Z,23.7
2017-07-31T11:40:02.369Z,24.5
2017-07-31T11:45:02.707Z,24.3
2017-07-31T11:50:03.128Z,23.8
2017-07-31T11:55:02.322Z,23.7
2017-07-31T12:00:02.534Z,23.6
2017-07-31T12:05:02.816Z,23.7
2017-07-31T12:10:02.300Z,23.2
2017-07-31T12:15:02.744Z,24.8
2017-07-31T12:20:03.076Z,25.0
2017-07-31T12:25:02.375Z,25.3
2017-07-31T12:30:02.813Z,25.5
2017-07-31T12:35:03.079Z,25.6
2017-07-31T12:40:02.312Z,25.3
2017-07-31T12:45:02.831Z,24.7
2017-07-31T12:50:03.155Z,25.3
2017-07-31T12:55:02.535Z,25.3
2017-07-31T13:00:02.820Z,26.1
2017-07-31T13:05:02.310Z,25.5
2017-07-31T13:10:02.764Z,25.7
2017-07-31T13:15:02.984Z,23.7
2017-07-31T13:20:02.447Z,24.2
2017-07-31T13:25:02.729Z,24.7
2017-07-31T13:30:02.974Z,25.0
2017-07-31T13:35:02.314Z,24.2
2017-07-31T13:40:03.088Z,25.3
2017-07-31T13:45:02.469Z,24.7
2017-07-31T13:50:02.836Z,24.7
2017-07-31T13:55:02.299Z,25.0
2017-07-31T14:00:02.639Z,24.2
2017-07-31T14:05:03.076Z,25.6
2017-07-31T14:10:02.592Z,25.0
2017-07-31T14:15:02.853Z,25.5
2017-07-31T14:20:03.212Z,25.3
2017-07-31T14:25:02.624Z,26.6
2017-07-31T14:30:03.023Z,25.7
2017-07-31T14:35:02.487Z,25.8
2017-07-31T14:40:02.758Z,25.8
2017-07-31T14:45:03.034Z,26.2
2017-07-31T14:50:02.482Z,26.1
2017-07-31T14:55:02.935Z,26.5
2017-07-31T15:00:02.358Z,26.2
2017-07-31T15:05:02.955Z,26.1
2017-07-31T15:10:02.295Z,26.2
2017-07-31T15:15:02.607Z,24.2
2017-07-31T15:20:03.069Z,23.8
2017-07-31T15:25:02.467Z,24.0
2017-07-31T15:30:02.732Z,25.1
2017-07-31T15:35:02.980Z,25.7
2017-07-31T15:40:02.286Z,25.5
2017-07-31T15:45:02.621Z,26.6
2017-07-31T15:50:03.045Z,25.6
2017-07-31T15:55:02.369Z,25.8
2017-07-31T16:00:02.679Z,26.5
2017-07-31T16:05:02.983Z,25.6
2017-07-31T16:10:02.306Z,24.6
2017-07-31T16:15:02.710Z,24.2
2017-07-31T16:20:03.012Z,24.2
2017-07-31T16:25:02.396Z,24.2
2017-07-31T16:30:02.732Z,23.8
2017-07-31T16:35:02.999Z,23.7
2017-07-31T16:40:02.505Z,23.8
2017-07-31T16:45:02.887Z,24.0
2017-07-31T16:50:02.270Z,24.0
2017-07-31T16:55:02.684Z,24.0
2017-07-31T17:00:03.299Z,24.2
2017-07-31T17:05:02.820Z,24.2
2017-07-31T17:10:03.153Z,24.0
2017-07-31T17:15:02.364Z,24.0
2017-07-31T17:20:02.732Z,24.2
2017-07-31T17:25:03.081Z,24.0
2017-07-31T17:30:02.327Z,23.7
2017-07-31T17:35:02.546Z,23.7
2017-07-31T17:40:03.014Z,23.8
2017-07-31T17:45:02.529Z,23.6
2017-07-31T17:50:02.880Z,23.7
2017-07-31T17:55:03.091Z,23.6
2017-07-31T18:00:02.499Z,23.2
2017-07-31T18:05:02.776Z,23.1
2017-07-31T18:10:03.111Z,23.2
2017-07-31T18:15:02.562Z,23.0
2017-07-31T18:20:03.024Z,23.1
2017-07-31T18:25:02.326Z,23.1
2017-07-31T18:30:02.613Z,22.7
2017-07-31T18:35:03.079Z,22.7
2017-07-31T18:40:02.537Z,22.7
2017-07-31T18:45:02.780Z,22.7
2017-07-31T18:50:03.163Z,22.5
2017-07-31T18:55:02.570Z,21.8
2017-07-31T19:00:02.772Z,21.7
2017-07-31T19:05:03.136Z,21.6
2017-07-31T19:10:02.488Z,21.3
2017-07-31T19:15:02.714Z,21.2
2017-07-31T19:20:02.990Z,21.0
2017-07-31T19:25:02.400Z,21.0
2017-07-31T19:30:02.819Z,20.8
2017-07-31T19:35:02.295Z,20.7
2017-07-31T19:40:02.654Z,20.6
2017-07-31T19:45:02.961Z,20.7
2017-07-31T19:50:03.224Z,20.7
2017-07-31T19:55:02.634Z,20.7
2017-07-31T20:00:03.032Z,20.3
2017-07-31T20:05:02.451Z,20.3
2017-07-31T20:10:02.784Z,20.2
2017-07-31T20:15:03.190Z,20.2
2017-07-31T20:20:02.439Z,20.1
2017-07-31T20:25:02.640Z,20.0
2017-07-31T20:30:03.025Z,19.7
2017-07-31T20:35:02.475Z,19.7
2017-07-31T20:40:02.786Z,19.5
2017-07-31T20:45:03.091Z,19.3
2017-07-31T20:50:02.484Z,19.3
2017-07-31T20:55:02.986Z,19.1
2017-07-31T21:00:02.231Z,19.1
2017-07-31T21:05:02.531Z,19.3
2017-07-31T21:10:02.840Z,19.3
2017-07-31T21:15:03.094Z,19.7
2017-07-31T21:20:02.281Z,20.0
2017-07-31T21:25:02.521Z,19.7
2017-07-31T21:30:03.007Z,19.3
2017-07-31T21:35:02.383Z,19.1
2017-07-31T21:40:02.805Z,19.0
2017-07-31T21:45:02.270Z,18.8
2017-07-31T21:50:02.574Z,18.7
2017-07-31T21:55:02.918Z,18.8
2017-07-31T22:00:03.502Z,18.8
2017-07-31T22:05:02.867Z,18.7
2017-07-31T22:10:02.320Z,18.7
2017-07-31T22:15:02.705Z,18.7
2017-07-31T22:20:03.112Z,18.7
2017-07-31T22:25:02.564Z,18.7
2017-07-31T22:30:02.890Z,18.6
2017-07-31T22:35:03.112Z,18.6
2017-07-31T22:40:02.593Z,18.6
2017-07-31T22:45:03.087Z,18.8
2017-07-31T22:50:02.431Z,18.6
2017-07-31T22:55:02.817Z,18.6
2017-07-31T23:00:03.424Z,18.7
2017-07-31T23:05:03.154Z,18.8
2017-07-31T23:10:02.573Z,18.7
2017-07-31T23:15:02.858Z,18.7
2017-07-31T23:20:03.098Z,18.2
2017-07-31T23:25:02.400Z,18.2
2017-07-31T23:30:02.777Z,18.5
2017-07-31T23:35:03.133Z,18.7
2017-07-31T23:40:02.558Z,19.0
2017-07-31T23:45:02.887Z,19.0
2017-07-31T23:50:02.245Z,19.1
2017-07-31T23:55:02.624Z,19.0
